Flight Track Log - Related Links

Times and Time Zones

All times are in EDT time to prevent confusion due to time zone crossing. See the DAL1042 flight status page for this flight to view local times or setup timezone preferences in your user account.

Time Position Orientation Groundspeed Altitude Reporting Facility
EDT Latitude Longitude Course Direction KTS MPH feet Rate Location/Type
Sat 10:09:15 AM 33.6500 -117.8833 90° East 157 181 1,500  Level Southern California TRACON
Sat 10:10:25 AM 33.6050 -117.8944 192° South 160 184 3,200 1,250 Climbing Los Angeles Center
Sat 10:11:00 AM 33.4880 -117.6478 54° Northeast  Level FlightAware Approximate
Sat 10:11:39 AM 33.5394 -117.8819 171° South 215 247 4,500  Level Los Angeles Center
Sat 10:12:00 AM 33.5460 -117.5218 66° East  Level FlightAware Approximate
Sat 10:12:40 AM 33.4831 -117.7947 128° Southeast 278 320 7,500  Level Los Angeles Center
Sat 10:13:00 AM 33.5833 -117.3862 90° East  Level FlightAware Approximate
Sat 10:13:41 AM 33.4817 -117.7008 91° East 285 328 10,000  Level Los Angeles Center
Sat 10:14:00 AM 33.5834 -117.2413 90° East  Level FlightAware Approximate
Sat 10:14:43 AM 33.5244 -117.6061 62° Northeast 319 367 11,400  Level Los Angeles Center
Sat 10:15:44 AM 33.5656 -117.5217 60° Northeast 347 399 12,200 1,426 Climbing Los Angeles Center
Sat 10:16:45 AM 33.5897 -117.3656 79° East 402 463 14,300 1,918 Climbing Los Angeles Center
Sat 10:17:46 AM 33.5925 -117.2278 89° East 413 475 16,100 1,733 Climbing Los Angeles Center
Sat 10:19:00 AM 33.5975 -117.0875 88° East 422 486 18,200 1,733 Climbing Los Angeles Center
Sat 10:20:01 AM 33.6036 -116.9153 88° East 432 497 20,000 1,707 Climbing Los Angeles Center
Sat 10:21:03 AM 33.6092 -116.7403 88° East 444 511 21,700 1,366 Climbing Los Angeles Center
Sat 10:22:04 AM 33.6208 -116.5894 85° East 453 521 22,800 1,180 Climbing Los Angeles Center
Sat 10:23:05 AM 33.6547 -116.4392 75° East 465 535 24,100 1,122 Climbing Los Angeles Center
Sat 10:24:07 AM 33.6853 -116.2878 76° East 465 535 25,100 976 Climbing Los Angeles Center
Sat 10:25:08 AM 33.7122 -116.1297 78° East 471 542 26,100 780 Climbing Los Angeles Center
Sat 10:26:10 AM 33.7456 -115.9692 76° East 486 559 26,700 976 Climbing Los Angeles Center
Sat 10:27:11 AM 33.7800 -115.8106 75° East 490 564 28,100 1,279 Climbing Los Angeles Center
Sat 10:28:12 AM 33.8056 -115.6844 76° East 486 559 29,300 1,220 Climbing Los Angeles Center
Sat 10:29:14 AM 33.8444 -115.4972 76° East 482 555 30,600 1,366 Climbing Los Angeles Center
Sat 10:30:15 AM 33.8811 -115.3108 77° East 478 550 32,100 1,258 Climbing Los Angeles Center
Sat 10:31:18 AM 33.9114 -115.1597 76° East 469 540 33,200 1,024 Climbing Los Angeles Center
Sat 10:32:18 AM 33.9422 -115.0100 76° East 463 533 34,200 992 Climbing Los Angeles Center
Sat 10:33:19 AM 33.9728 -114.8614 76° East 461 531 35,200 878 Climbing Los Angeles Center
Sat 10:34:21 AM 34.0047 -114.7158 75° East 451 519 36,000 732 Climbing Los Angeles Center
Sat 10:35:22 AM 34.0311 -114.5639 78° East 458 527 36,700 488 Climbing Los Angeles Center
Sat 10:36:24 AM 34.0606 -114.4167 76° East 454 522 37,000 146 Climbing Los Angeles Center
Sat 10:37:25 AM 34.0897 -114.2706 76° East 451 519 37,000  Level Los Angeles Center
Sat 10:38:27 AM 34.1175 -114.1228 77° East 451 519 37,000  Level Los Angeles Center
Sat 10:39:06 AM 34.1394 -114.0122 76° East 452 520 37,000  Level Albuquerque Center
Sat 10:40:08 AM 34.1692 -113.8631 76° East 455 524 37,000  Level Albuquerque Center
Sat 10:41:10 AM 34.1964 -113.7147 77° East 455 524 37,000  Level Albuquerque Center
Sat 10:42:11 AM 34.2275 -113.5472 77° East 454 522 37,000  Level Albuquerque Center
Sat 10:43:13 AM 34.2553 -113.3986 77° East 454 522 37,000  Level Albuquerque Center
Sat 10:44:15 AM 34.2828 -113.2511 77° East 453 521 37,000  Level Albuquerque Center
Sat 10:45:16 AM 34.3094 -113.1025 78° East 452 520 37,000  Level Albuquerque Center
Sat 10:46:18 AM 34.3367 -112.9544 77° East 451 519 37,000  Level Albuquerque Center
Sat 10:47:20 AM 34.3644 -112.8056 77° East 453 521 37,000  Level Albuquerque Center
Sat 10:48:21 AM 34.3894 -112.6583 78° East 450 518 37,000  Level Albuquerque Center
Sat 10:49:23 AM 34.4222 -112.4806 77° East 449 517 37,000  Level Albuquerque Center
Sat 10:50:25 AM 34.4486 -112.3317 78° East 450 518 37,000  Level Albuquerque Center
Sat 10:51:26 AM 34.4753 -112.1828 78° East 450 518 37,000  Level Albuquerque Center
Sat 10:52:28 AM 34.5011 -112.0333 78° East 451 519 37,000  Level Albuquerque Center
Sat 10:53:30 AM 34.5272 -111.8847 78° East 450 518 37,000  Level Albuquerque Center
Sat 10:54:32 AM 34.5519 -111.7350 79° East 451 519 37,000  Level Albuquerque Center
Sat 10:55:33 AM 34.5786 -111.5853 78° East 451 519 37,000  Level Albuquerque Center
Sat 10:56:35 AM 34.6031 -111.4344 79° East 453 521 37,000  Level Albuquerque Center
Sat 10:57:37 AM 34.6339 -111.2539 78° East 454 522 37,000  Level Albuquerque Center
Sat 10:58:39 AM 34.6594 -111.1036 78° East 454 522 37,000  Level Albuquerque Center
Sat 10:59:41 AM 34.6831 -110.9544 79° East 452 520 37,000  Level Albuquerque Center
Sat 11:00:43 AM 34.7078 -110.8036 79° East 453 521 37,000  Level Albuquerque Center
Sat 11:01:45 AM 34.7372 -110.6375 78° East 451 519 37,000  Level Albuquerque Center
Sat 11:02:46 AM 34.7600 -110.4950 79° East 449 517 37,000  Level Albuquerque Center
Sat 11:03:48 AM 34.7875 -110.3281 79° East 451 519 37,000  Level Albuquerque Center
Sat 11:04:50 AM 34.8097 -110.1833 79° East 453 521 37,000  Level Albuquerque Center
Sat 11:05:52 AM 34.8344 -110.0133 80° East 456 525 37,000  Level Albuquerque Center
Sat 11:06:54 AM 34.8578 -109.8708 79° East 452 520 37,000  Level Albuquerque Center
Sat 11:07:56 AM 34.8794 -109.7264 80° East 453 521 37,000  Level Albuquerque Center
Sat 11:08:58 AM 34.9053 -109.5586 79° East 454 522 37,000  Level Albuquerque Center
Sat 11:10:00 AM 34.9272 -109.4147 79° East 452 520 37,000  Level Albuquerque Center
Sat 11:11:02 AM 34.9525 -109.2453 80° East 455 524 37,000  Level Albuquerque Center
Sat 11:12:04 AM 34.9769 -109.1011 78° East 455 524 37,000  Level Albuquerque Center
Sat 11:13:06 AM 35.0083 -108.9339 77° East 454 522 37,000  Level Albuquerque Center
Sat 11:14:08 AM 35.0344 -108.7886 78° East 456 525 37,000  Level Albuquerque Center
Sat 11:15:10 AM 35.0658 -108.6225 77° East 454 522 37,000  Level Albuquerque Center
Sat 11:16:12 AM 35.0933 -108.4778 77° East 457 526 37,000  Level Albuquerque Center
Sat 11:17:14 AM 35.1242 -108.3114 77° East 453 521 37,000  Level Albuquerque Center
Sat 11:18:16 AM 35.1497 -108.1667 78° East 455 524 37,000  Level Albuquerque Center
Sat 11:19:18 AM 35.1811 -107.9992 77° East 455 524 37,000  Level Albuquerque Center
Sat 11:20:20 AM 35.2058 -107.8547 78° East 455 524 37,000  Level Albuquerque Center
Sat 11:21:22 AM 35.2369 -107.6856 77° East 457 526 37,000  Level Albuquerque Center
Sat 11:22:24 AM 35.2617 -107.5411 78° East 455 524 37,000  Level Albuquerque Center
Sat 11:23:26 AM 35.2933 -107.3683 77° East 459 528 37,000  Level Albuquerque Center
Sat 11:24:28 AM 35.3175 -107.2242 78° East 455 524 37,000  Level Albuquerque Center
Sat 11:25:30 AM 35.3442 -107.0633 78° East 458 527 37,000  Level Albuquerque Center
Sat 11:26:32 AM 35.3719 -106.8997 78° East 457 526 37,000  Level Albuquerque Center
Sat 11:27:34 AM 35.3978 -106.7456 78° East 461 531 37,000  Level Albuquerque Center
Sat 11:28:36 AM 35.4253 -106.5806 78° East 459 528 37,000  Level Albuquerque Center
Sat 11:29:38 AM 35.4511 -106.4281 78° East 458 527 37,000  Level Albuquerque Center
Sat 11:30:40 AM 35.4758 -106.2725 79° East 464 534 37,000  Level Albuquerque Center
Sat 11:31:42 AM 35.5047 -106.1178 77° East 461 531 37,000  Level Albuquerque Center
Sat 11:32:44 AM 35.5294 -105.9619 79° East 465 535 37,000  Level Albuquerque Center
Sat 11:33:46 AM 35.5517 -105.8050 80° East 461 531 37,000  Level Albuquerque Center
Sat 11:34:48 AM 35.5769 -105.6500 79° East 462 532 37,000  Level Albuquerque Center
Sat 11:35:50 AM 35.6061 -105.4736 78° East 460 529 37,000  Level Albuquerque Center
Sat 11:36:51 AM 35.6308 -105.3167 79° East 463 533 37,000  Level Albuquerque Center
Sat 11:37:53 AM 35.6536 -105.1597 80° East 462 532 37,000  Level Albuquerque Center
Sat 11:38:55 AM 35.6783 -105.0008 79° East 465 535 37,000  Level Albuquerque Center
Sat 11:39:57 AM 35.7017 -104.8442 80° East 462 532 37,000  Level Albuquerque Center
Sat 11:40:59 AM 35.7256 -104.6856 79° East 462 532 37,000  Level Albuquerque Center
Sat 11:42:01 AM 35.7500 -104.5267 79° East 465 535 37,000  Level Albuquerque Center
Sat 11:43:02 AM 35.7728 -104.3667 80° East 467 537 37,000  Level Albuquerque Center
Sat 11:44:04 AM 35.7972 -104.2078 79° East 466 536 37,000  Level Albuquerque Center
Sat 11:45:06 AM 35.8231 -104.0214 80° East 466 536 37,000  Level Albuquerque Center
Sat 11:46:08 AM 35.8472 -103.8600 79° East 470 541 37,000  Level Albuquerque Center
Sat 11:47:09 AM 35.8706 -103.6992 80° East 472 543 37,000  Level Albuquerque Center
Sat 11:48:11 AM 35.8922 -103.5369 81° East 473 544 37,000  Level Albuquerque Center
Sat 11:49:13 AM 35.9156 -103.3750 80° East 474 545 37,000  Level Albuquerque Center
Sat 11:50:15 AM 35.9375 -103.2136 80° East 473 544 37,000  Level Albuquerque Center
Sat 11:51:16 AM 35.9597 -103.0519 80° East 473 544 37,000  Level Albuquerque Center
Sat 11:52:18 AM 35.9819 -102.8864 81° East 474 545 37,000  Level Albuquerque Center
Sat 11:53:20 AM 36.0031 -102.7247 81° East 476 548 37,000  Level Albuquerque Center
Sat 11:54:22 AM 36.0239 -102.5644 81° East 474 545 37,000  Level Albuquerque Center
Sat 11:55:23 AM 36.0450 -102.4031 81° East 475 547 37,000  Level Albuquerque Center
Sat 11:56:25 AM 36.0650 -102.2431 81° East 472 543 37,000  Level Albuquerque Center
Sat 11:57:26 AM 36.0903 -102.0478 81° East 476 548 37,000  Level Albuquerque Center
Sat 11:58:28 AM 36.1103 -101.8858 81° East 476 548 37,000  Level Albuquerque Center
Sat 11:59:30 AM 36.1308 -101.7236 81° East 476 548 37,000  Level Albuquerque Center
Sat 12:00:32 PM 36.1514 -101.5619 81° East 476 548 37,000  Level Albuquerque Center
Sat 12:01:33 PM 36.1711 -101.4006 81° East 474 545 37,000  Level Albuquerque Center
Sat 12:02:35 PM 36.1903 -101.2306 82° East 476 548 37,000  Level Albuquerque Center
Sat 12:03:37 PM 36.2108 -101.0672 81° East 479 551 37,000  Level Albuquerque Center
Sat 12:04:39 PM 36.2283 -100.9053 82° East 475 547 37,000  Level Albuquerque Center
Sat 12:05:41 PM 36.2481 -100.7444 81° East 473 544 37,000  Level Albuquerque Center
Sat 12:06:42 PM 36.2650 -100.5828 83° East 472 543 37,000  Level Albuquerque Center
Sat 12:07:44 PM 36.2869 -100.3881 82° East 473 544 37,000  Level Albuquerque Center
Sat 12:08:46 PM 36.3056 -100.2264 82° East 473 544 37,000  Level Albuquerque Center
Sat 12:09:48 PM 36.3131 -100.0631 87° East 476 548 37,000  Level Albuquerque Center
Sat 12:10:56 PM 36.2956 -99.8994 98° East 481 554 37,000  Level Kansas City Center
Sat 12:11:57 PM 36.2706 -99.7036 99° East 478 550 37,000  Level Kansas City Center
Sat 12:12:59 PM 36.2494 -99.5392 99° East 480 552 37,000  Level Kansas City Center
Sat 12:14:01 PM 36.2283 -99.3775 99° East 479 551 37,000  Level Kansas City Center
Sat 12:15:02 PM 36.2072 -99.2133 99° East 482 555 37,000  Level Kansas City Center
Sat 12:16:04 PM 36.1869 -99.0486 99° East 486 559 37,000  Level Kansas City Center
Sat 12:17:05 PM 36.1619 -98.8872 101° East 480 552 37,000  Level Kansas City Center
Sat 12:18:07 PM 36.1358 -98.7117 100° East 477 549 37,000  Level Kansas City Center
Sat 12:19:09 PM 36.1139 -98.5494 99° East 477 549 37,000  Level Kansas City Center
Sat 12:20:10 PM 36.0897 -98.3872 100° East 477 549 37,000  Level Kansas City Center
Sat 12:21:12 PM 36.0661 -98.2261 100° East 476 548 37,000  Level Kansas City Center
Sat 12:22:14 PM 36.0403 -98.0494 100° East 476 548 37,000  Level Kansas City Center
Sat 12:23:15 PM 36.0158 -97.8883 101° East 477 549 37,000  Level Kansas City Center
Sat 12:24:17 PM 35.9922 -97.7264 100° East 477 549 37,000  Level Kansas City Center
Sat 12:25:18 PM 35.9681 -97.5639 100° East 480 552 37,000  Level Kansas City Center
Sat 12:26:20 PM 35.9431 -97.4019 101° East 479 551 37,000  Level Kansas City Center
Sat 12:27:22 PM 35.9172 -97.2414 101° East 476 548 37,000  Level Kansas City Center
Sat 12:28:23 PM 35.8925 -97.0806 101° East 475 547 37,000  Level Kansas City Center
Sat 12:29:25 PM 35.8617 -96.8869 101° East 477 549 37,000  Level Kansas City Center
Sat 12:30:27 PM 35.8353 -96.7253 101° East 479 551 37,000  Level Kansas City Center
Sat 12:31:28 PM 35.8092 -96.5647 101° East 479 551 37,000  Level Kansas City Center
Sat 12:32:30 PM 35.7817 -96.4050 102° East 478 550 37,000  Level Kansas City Center
Sat 12:33:32 PM 35.7556 -96.2444 101° East 478 550 37,000  Level Kansas City Center
Sat 12:34:33 PM 35.7261 -96.0683 102° East 482 555 37,000  Level Kansas City Center
Sat 12:35:35 PM 35.6986 -95.9083 102° East 482 555 37,000  Level Kansas City Center
Sat 12:36:37 PM 35.6711 -95.7500 102° East 478 550 37,000  Level Kansas City Center
Sat 12:37:38 PM 35.6411 -95.5917 103° East 477 549 37,000  Level Kansas City Center
Sat 12:38:40 PM 35.6117 -95.4328 103° East 479 551 37,000  Level Kansas City Center
Sat 12:39:40 PM 35.5800 -95.2708 103° East 457 526 37,000  Level Memphis Center
Sat 12:40:40 PM 35.5508 -95.1133 103° East 457 526 37,000  Level Memphis Center
Sat 12:41:40 PM 35.5192 -94.9536 104° East 462 532 37,000  Level Memphis Center
Sat 12:42:40 PM 35.4894 -94.7989 103° East 468 539 37,000  Level Memphis Center
Sat 12:43:40 PM 35.4617 -94.6394 102° East 468 539 37,000  Level Memphis Center
Sat 12:44:40 PM 35.4292 -94.4875 105° East 468 539 37,000  Level Memphis Center
Sat 12:45:40 PM 35.3969 -94.3278 104° East 473 544 37,000  Level Memphis Center
Sat 12:46:40 PM 35.3789 -94.1717 98° East 473 544 37,000  Level Memphis Center
Sat 12:47:40 PM 35.3667 -94.0158 95° East 468 539 37,000  Level Memphis Center
Sat 12:48:40 PM 35.3586 -93.8603 94° East 468 539 37,000  Level Memphis Center
Sat 12:49:40 PM 35.3444 -93.7017 96° East 468 539 37,000  Level Memphis Center
Sat 12:50:40 PM 35.3358 -93.5461 94° East 463 533 37,000  Level Memphis Center
Sat 12:51:40 PM 35.3231 -93.3931 96° East 463 533 37,000  Level Memphis Center
Sat 12:52:40 PM 35.3142 -93.2400 94° East 463 533 37,000  Level Memphis Center
Sat 12:53:40 PM 35.2989 -93.0817 97° East 463 533 37,000  Level Memphis Center
Sat 12:54:40 PM 35.2875 -92.9289 95° East 463 533 37,000  Level Memphis Center
Sat 12:55:40 PM 35.2781 -92.7733 94° East 463 533 37,000  Level Memphis Center
Sat 12:56:40 PM 35.2606 -92.5975 97° East 469 540 37,000  Level Memphis Center
Sat 12:57:40 PM 35.2486 -92.4444 95° East 464 534 37,000  Level Memphis Center
Sat 12:58:40 PM 35.2344 -92.2892 96° East 459 528 37,000  Level Memphis Center
Sat 12:59:40 PM 35.2200 -92.1361 97° East 459 528 37,000  Level Memphis Center
Sat 01:00:40 PM 35.2075 -91.9808 96° East 459 528 37,000  Level Memphis Center
Sat 01:01:40 PM 35.1928 -91.8283 97° East 464 534 37,000  Level Memphis Center
Sat 01:02:40 PM 35.1800 -91.6706 96° East 464 534 37,000  Level Memphis Center
Sat 01:03:40 PM 35.1669 -91.5178 96° East 464 534 37,000  Level Memphis Center
Sat 01:04:40 PM 35.1536 -91.3628 96° East 464 534 37,000  Level Memphis Center
Sat 01:05:40 PM 35.1422 -91.2153 95° East 453 521 37,000  Level Memphis Center
Sat 01:06:40 PM 35.1264 -91.0603 97° East 453 521 37,000  Level Memphis Center
Sat 01:07:40 PM 35.1125 -90.9231 97° East 453 521 37,000  Level Memphis Center
Sat 01:08:40 PM 35.0964 -90.7683 97° East 458 527 37,000  Level Memphis Center
Sat 01:09:40 PM 35.0822 -90.6133 96° East 463 533 37,000  Level Memphis Center
Sat 01:10:40 PM 35.0658 -90.4586 97° East 463 533 37,000  Level Memphis Center
Sat 01:11:40 PM 35.0492 -90.3039 97° East 463 533 37,000  Level Memphis Center
Sat 01:12:40 PM 35.0364 -90.1517 96° East 457 526 37,000  Level Memphis Center
Sat 01:13:40 PM 35.0172 -89.9792 98° East 457 526 37,000  Level Memphis Center
Sat 01:14:40 PM 35.0019 -89.8247 97° East 457 526 37,000  Level Memphis Center
Sat 01:15:40 PM 34.9783 -89.6600 100° East 483 556 37,000  Level Memphis Center
Sat 01:16:40 PM 34.9481 -89.5083 104° East 478 550 37,000  Level Memphis Center
Sat 01:17:40 PM 34.9261 -89.3667 101° East 468 539 37,000  Level Memphis Center
Sat 01:18:40 PM 34.9019 -89.2150 101° East 468 539 37,000  Level Memphis Center
Sat 01:19:40 PM 34.8794 -89.0636 100° East 462 532 37,000  Level Memphis Center
Sat 01:20:40 PM 34.8547 -88.9069 101° East 468 539 37,000  Level Memphis Center
Sat 01:21:40 PM 34.8300 -88.7531 101° East 463 533 37,000  Level Memphis Center
Sat 01:22:40 PM 34.8047 -88.5867 100° East 469 540 37,000  Level Memphis Center
Sat 01:23:40 PM 34.7842 -88.4556 101° East 462 532 37,000 -250 Level Memphis Center
Sat 01:24:40 PM 34.7586 -88.2994 101° East 457 526 36,500 -1,000 Descending Memphis Center
Sat 01:25:40 PM 34.7306 -88.1233 101° East 474 545 35,000 -1,500 Descending Memphis Center
Sat 01:26:40 PM 34.7067 -87.9647 100° East 485 558 33,500 -1,650 Descending Memphis Center
Sat 01:27:40 PM 34.6806 -87.8039 101° East 485 558 31,700 -1,250 Descending Memphis Center
Sat 01:28:40 PM 34.6542 -87.6406 101° East 485 558 31,000 -350 Descending Memphis Center
Sat 01:29:40 PM 34.6233 -87.4825 103° East 490 564 31,000  Level Memphis Center
Sat 01:30:40 PM 34.5944 -87.3169 102° East 477 549 31,000  Level Memphis Center
Sat 01:32:09 PM 34.5539 -87.0856 102° East 490 564 31,000  Level Atlanta Center
Sat 01:33:09 PM 34.5222 -86.9231 103° East 490 564 31,000 -50 Level Atlanta Center
Sat 01:34:09 PM 34.4925 -86.7631 103° East 490 564 30,900 -550 Descending Atlanta Center
Sat 01:35:09 PM 34.4606 -86.6008 103° East 490 564 29,900 -750 Descending Atlanta Center
Sat 01:36:09 PM 34.4303 -86.4414 103° East 490 564 29,400 -750 Descending Atlanta Center
Sat 01:37:09 PM 34.3978 -86.2869 104° East 484 557 28,400 -850 Descending Atlanta Center
Sat 01:38:09 PM 34.3692 -86.1350 103° East 471 542 27,700 -650 Descending Atlanta Center
Sat 01:39:09 PM 34.3383 -85.9858 104° East 466 536 27,100 -700 Descending Atlanta Center
Sat 01:40:09 PM 34.3111 -85.8419 103° East 453 521 26,300 -1,450 Descending Atlanta Center
Sat 01:41:09 PM 34.2819 -85.6881 103° East 427 491 24,200 -1,800 Descending Atlanta Center
Sat 01:42:09 PM 34.2544 -85.5567 104° East 413 475 22,700 -1,500 Descending Atlanta Center
Sat 01:43:09 PM 34.2350 -85.4333 101° East 384 442 21,200 -850 Descending Atlanta Center
Sat 01:44:09 PM 34.2469 -85.3153 83° East 351 404 21,000 -1,350 Descending Atlanta Center
Sat 01:45:09 PM 34.2061 -85.2117 115° Southeast 330 380 18,500 -2,700 Descending Atlanta Center
Sat 01:46:09 PM 34.1403 -85.1206 131° Southeast 354 407 15,600 -2,200 Descending Atlanta Center
Sat 01:47:09 PM 34.0825 -85.0419 132° Southeast 354 407 14,100 -900 Descending Atlanta Center
Sat 01:48:09 PM 34.0183 -84.9461 129° Southeast 354 407 13,800 -900 Descending Atlanta Center
Sat 01:49:09 PM 33.9564 -84.8578 130° Southeast 354 407 12,300 -900 Descending Atlanta Center
Sat 01:50:09 PM 33.8922 -84.7769 134° Southeast 344 396 12,000 -150 Descending Atlanta Center
Sat 01:51:09 PM 33.8300 -84.7039 136° Southeast 326 375 12,000 -55 Level Atlanta Center
Sat 01:51:59 PM 33.7667 -84.6333 137° Southeast 310 357 11,900 -414 Descending Atlanta TRACON
Sat 01:53:05 PM 33.7333 -84.5500 116° Southeast 269 310 11,200 -714 Descending Atlanta TRACON
Sat 01:54:05 PM 33.7333 -84.4667 90° East 252 290 10,400 -1,050 Descending Atlanta TRACON
Sat 01:55:05 PM 33.7333 -84.3833 90° East 245 282 9,100 -1,200 Descending Atlanta TRACON
Sat 01:56:05 PM 33.7333 -84.3000 90° East 234 269 8,000 -1,100 Descending Atlanta TRACON
Sat 01:57:05 PM 33.7333 -84.2333 90° East 226 260 6,900 -1,100 Descending Atlanta TRACON
Sat 01:58:05 PM 33.7333 -84.1500 90° East 225 259 5,800 -905 Descending Atlanta TRACON
Sat 01:59:11 PM 33.7333 -84.0667 90° East 221 254 5,000 -381 Descending Atlanta TRACON
Sat 02:00:11 PM 33.7333 -84.0000 90° East 212 244 5,000  Level Atlanta TRACON
Sat 02:01:05 PM 33.6833 -83.9833 164° South 202 232 5,000  Level Atlanta TRACON
Sat 02:02:05 PM 33.6500 -84.0333 231° Southwest 203 234 5,000  Level Atlanta TRACON
Sat 02:03:05 PM 33.6500 -84.1000 270° West 198 228 5,000  Level Atlanta TRACON
Sat 02:03:59 PM 33.6500 -84.1500 270° West 200 230 5,000 -579 Level Atlanta TRACON
Sat 02:04:59 PM 33.6500 -84.2167 270° West 202 232 3,900 -1,048 Descending Atlanta TRACON
Sat 02:06:05 PM 33.6500 -84.3000 270° West 196 226 2,800 -952 Descending Atlanta TRACON
Sat 02:07:05 PM 33.6500 -84.3500 270° West 156 180 1,900 -800 Descending Atlanta TRACON
Sat 02:08:05 PM 33.6500 -84.4000 270° West 141 162 1,200 -700 Descending Atlanta TRACON

Login

Don't have an account? Register now (free) for customized features, flight alerts, and more!